Adair, IL

1:43 AM CDT on July 08, 2015 (GMT -0500)
ARS W9PFD | | Change Station
CLOSE
Current Station
Personal Weather Station
Location: Adair, IL
Elevation: 650 ft
Nearby Weather Stations

Elev 650 ft 40.42 °N, 90.46 °W | Updated 3 minutes ago

Overcast
Overcast
63.5 °F
Feels Like 63.5 °F
N
8.0
Wind Variable Wind from ESE
Gusts 8.0 mph

Today
High -- | Low -- °F
--% Chance of Precip.
Yesterday
High -- | Low -- °F
Precip. -- in
5:39 AM 8:33 PM
Waning Gibbous, 57% visible
Pressure 30.10 in
Visibility 5.0 miles
Clouds Mostly Cloudy 4700 ft
Dew Point 59 °F
Humidity 84%
Rainfall 0.00 in
Snow Depth Not available.
UV 0 out of 12
Pollen 1.50 out of 12
Air Quality Not available.
Flu Activity Not available.
METAR KMQB 080635Z AUTO 07004KT 5SM BR BKN047 17/16 A3010 RMK AO2 T01650158

More Conditions Fewer Conditions

Pressure 30.10 in
Visibility 5.0 miles
Clouds Mostly Cloudy 4700 ft
Dew Point 59 °F
Humidity 84%
Rainfall 0.00 in
Snow Depth Not available.
UV 0 out of 12
Pollen 1.50 out of 12
Air Quality Not available.
Flu Activity Not available.
METAR KMQB 080635Z AUTO 07004KT 5SM BR BKN047 17/16 A3010 RMK AO2 T01650158

More Conditions Fewer Conditions

10-Day Weather Forecast

×

Almanac

Astronomy

Jul. 08, 2015 Rise Set
Actual Time
Civil Twilight
Nautical Twilight
Astronomical Twilight
Moon
Length of Visible Light
Length of Day
Tomorrow will be .
, % of the Moon is Illuminated

Today's Extremes

State Highs State Lows

Community

WunderPhotos

Upload Photos

1,836,064 photos uploaded!

WunderBlogs® & News

Nearby

Air Quality

  Air Quality AQ Index Pollutant
Not available.

Snow Depth

Station Depth Elevation

Earthquake Activity

City Distance Mag. Time & Date
Minimum magnitude displayed is 2.5.

Coastal Water Temperatures

Place Temperature

Stations

Nearby Weather Stations

Station Location Temp. Windchill Dew Point Humidity Wind Precip. Elev Updated Type